createdAt,value
2023-04-22T00:00:03.554Z,67.35
2023-04-22T00:01:03.242Z,67.21
2023-04-22T00:01:43.291Z,67.63
2023-04-22T00:02:24.201Z,67.34
2023-04-22T00:03:08.619Z,68.14
2023-04-22T00:03:51.345Z,67.65
2023-04-22T00:04:39.457Z,67.85
2023-04-22T00:05:33.212Z,67.86
2023-04-22T00:06:28.180Z,67.63
2023-04-22T00:07:22.517Z,67.75
2023-04-22T00:08:10.542Z,68.55
2023-04-22T00:08:51.193Z,67.99
2023-04-22T00:09:31.357Z,67.67
2023-04-22T00:10:12.253Z,68.28
2023-04-22T00:10:53.273Z,68.39
2023-04-22T00:11:34.399Z,69.05
2023-04-22T00:12:15.307Z,68.55
2023-04-22T00:12:56.198Z,69.20
2023-04-22T00:13:37.090Z,68.76
2023-04-22T00:14:18.152Z,68.17
2023-04-22T00:14:58.320Z,68.39
2023-04-22T00:15:39.188Z,68.55
2023-04-22T00:16:19.398Z,68.62
2023-04-22T00:17:00.188Z,68.41
2023-04-22T00:17:40.406Z,68.24
2023-04-22T00:18:20.170Z,68.99
2023-04-22T00:19:00.363Z,68.48
2023-04-22T00:19:41.322Z,68.83
2023-04-22T00:20:23.974Z,68.82
2023-04-22T00:21:05.178Z,68.48
2023-04-22T00:21:45.237Z,68.59
2023-04-22T00:22:26.225Z,69.77
2023-04-22T00:23:06.242Z,69.08
2023-04-22T00:23:47.146Z,68.74
2023-04-22T00:24:27.378Z,69.07
2023-04-22T00:25:08.181Z,68.77
2023-04-22T00:25:48.252Z,68.52
2023-04-22T00:26:28.273Z,68.69
2023-04-22T00:27:08.378Z,68.53
2023-04-22T00:27:48.191Z,69.20
2023-04-22T00:28:29.257Z,68.39
2023-04-22T00:29:10.203Z,68.55
2023-04-22T00:29:50.279Z,68.22
2023-04-22T00:30:31.136Z,68.75
2023-04-22T00:31:11.401Z,68.13
2023-04-22T00:31:53.198Z,67.96
2023-04-22T00:32:33.254Z,67.37
2023-04-22T00:33:14.217Z,67.73
2023-04-22T00:33:54.255Z,67.96
2023-04-22T00:34:34.179Z,68.25
2023-04-22T00:35:15.286Z,68.07
2023-04-22T00:35:56.167Z,68.62
2023-04-22T00:36:36.242Z,68.04
2023-04-22T00:37:17.178Z,68.39
2023-04-22T00:37:59.658Z,68.04
2023-04-22T00:38:40.204Z,68.30
2023-04-22T00:39:20.217Z,68.30
2023-04-22T00:40:01.125Z,68.16
2023-04-22T00:40:41.230Z,68.06
2023-04-22T00:41:22.150Z,67.87
2023-04-22T00:42:02.248Z,68.25
2023-04-22T00:42:44.243Z,68.55
2023-04-22T00:43:25.282Z,68.35
2023-04-22T00:44:07.126Z,68.58
2023-04-22T00:44:48.510Z,68.64
2023-04-22T00:45:29.163Z,68.52
2023-04-22T00:46:09.262Z,68.76
2023-04-22T00:46:49.186Z,68.74
2023-04-22T00:47:29.534Z,68.41
2023-04-22T00:48:10.220Z,68.51
2023-04-22T00:48:50.272Z,68.56
2023-04-22T00:49:34.106Z,68.40
2023-04-22T00:50:15.303Z,68.17
2023-04-22T00:50:55.133Z,68.49
2023-04-22T00:51:35.250Z,68.53
2023-04-22T00:52:15.192Z,68.72
2023-04-22T00:52:55.211Z,69.21
2023-04-22T00:53:36.169Z,68.82
2023-04-22T00:54:16.197Z,68.87
2023-04-22T00:54:56.239Z,69.18
2023-04-22T00:55:36.216Z,68.77
2023-04-22T00:56:18.097Z,68.86
2023-04-22T00:56:58.821Z,68.96
2023-04-22T00:57:41.120Z,68.81
2023-04-22T00:58:21.247Z,68.37
2023-04-22T00:59:02.235Z,68.28
2023-04-22T00:59:42.381Z,68.41
2023-04-22T01:00:23.136Z,68.31
2023-04-22T01:01:04.307Z,68.83
2023-04-22T01:01:45.108Z,68.84
2023-04-22T01:02:25.388Z,68.59
2023-04-22T01:03:07.307Z,68.60
2023-04-22T01:03:48.514Z,68.71
2023-04-22T01:04:29.268Z,68.51
2023-04-22T01:05:09.654Z,68.58
2023-04-22T01:05:51.167Z,68.44
2023-04-22T01:06:32.495Z,68.14
2023-04-22T01:07:13.152Z,69.10
2023-04-22T01:07:53.232Z,69.06
2023-04-22T01:08:36.134Z,68.93
2023-04-22T01:09:16.223Z,68.54
2023-04-22T01:09:57.246Z,68.56
2023-04-22T01:10:37.197Z,68.24
2023-04-22T01:11:17.137Z,68.59
2023-04-22T01:11:57.429Z,68.49
2023-04-22T01:12:38.166Z,68.63
2023-04-22T01:13:18.215Z,68.50
2023-04-22T01:13:59.124Z,68.20
2023-04-22T01:14:39.386Z,68.53
2023-04-22T01:15:19.166Z,68.44
2023-04-22T01:16:00.456Z,68.35
2023-04-22T01:16:42.242Z,68.44
2023-04-22T01:17:24.725Z,68.12
2023-04-22T01:18:07.175Z,68.33
2023-04-22T01:18:47.300Z,68.63
2023-04-22T01:19:28.094Z,68.64
2023-04-22T01:20:12.301Z,68.64
2023-04-22T01:20:52.227Z,68.41
2023-04-22T01:21:34.367Z,68.51
2023-04-22T01:22:15.094Z,68.83
2023-04-22T01:22:58.948Z,69.27
2023-04-22T01:23:40.131Z,68.54
2023-04-22T01:24:20.510Z,68.88
2023-04-22T01:25:01.123Z,68.97
2023-04-22T01:25:43.194Z,68.98
2023-04-22T01:26:24.140Z,69.36
2023-04-22T01:27:04.177Z,69.09
2023-04-22T01:27:46.149Z,69.46
2023-04-22T01:28:26.350Z,69.50
2023-04-22T01:29:09.082Z,69.14
2023-04-22T01:29:49.272Z,69.31
2023-04-22T01:30:30.097Z,69.58
2023-04-22T01:31:11.204Z,70.04
2023-04-22T01:31:52.134Z,69.69
2023-04-22T01:32:32.292Z,69.54
2023-04-22T01:33:14.147Z,69.23
2023-04-22T01:33:54.232Z,69.47
2023-04-22T01:34:35.117Z,69.43
2023-04-22T01:35:17.208Z,69.59
2023-04-22T01:35:58.104Z,69.81
2023-04-22T01:36:38.198Z,69.93
2023-04-22T01:37:18.128Z,69.88
2023-04-22T01:37:58.422Z,69.84
2023-04-22T01:38:40.140Z,69.91
2023-04-22T01:39:20.244Z,70.43
2023-04-22T01:40:00.115Z,69.82
2023-04-22T01:40:41.212Z,69.62
2023-04-22T01:41:21.062Z,70.23
2023-04-22T01:42:02.304Z,70.02
2023-04-22T01:42:43.127Z,69.84
2023-04-22T01:43:23.216Z,69.65
2023-04-22T01:44:06.165Z,69.96
2023-04-22T01:44:46.275Z,69.77
2023-04-22T01:45:27.106Z,70.23
2023-04-22T01:46:12.215Z,69.88
2023-04-22T01:46:53.098Z,69.66
2023-04-22T01:47:33.284Z,69.72
2023-04-22T01:48:14.234Z,69.99
2023-04-22T01:48:54.316Z,69.64
2023-04-22T01:49:34.084Z,69.99
2023-04-22T01:50:15.224Z,69.90
2023-04-22T01:50:56.084Z,69.87
2023-04-22T01:51:37.180Z,70.01
2023-04-22T01:52:18.094Z,69.84
2023-04-22T01:52:59.136Z,69.63
2023-04-22T01:53:39.110Z,69.44
2023-04-22T01:54:19.154Z,69.79
2023-04-22T01:55:00.079Z,70.31
2023-04-22T01:55:40.343Z,69.99
2023-04-22T01:56:21.153Z,70.58
2023-04-22T01:57:23.078Z,69.95
2023-04-22T01:58:19.075Z,70.27
2023-04-22T01:59:00.095Z,70.46
2023-04-22T01:59:40.409Z,70.68
2023-04-22T02:00:22.072Z,70.58
2023-04-22T02:01:02.220Z,70.30
2023-04-22T02:01:42.146Z,70.18
2023-04-22T02:02:22.650Z,70.19
2023-04-22T02:03:04.142Z,70.36
2023-04-22T02:03:45.356Z,70.21
2023-04-22T02:04:26.131Z,70.49
2023-04-22T02:05:06.275Z,70.50
2023-04-22T02:05:47.111Z,70.61
2023-04-22T02:06:27.491Z,70.98
2023-04-22T02:07:08.068Z,70.44
2023-04-22T02:07:48.234Z,70.19
2023-04-22T02:08:28.071Z,70.14
2023-04-22T02:09:09.185Z,70.08
2023-04-22T02:09:50.866Z,70.51
2023-04-22T02:10:31.180Z,70.50
2023-04-22T02:11:12.069Z,70.77
2023-04-22T02:11:52.161Z,70.67
2023-04-22T02:12:32.141Z,70.66
2023-04-22T02:13:12.194Z,70.36
2023-04-22T02:13:52.088Z,71.24
2023-04-22T02:14:32.139Z,70.80
2023-04-22T02:15:13.161Z,70.56
2023-04-22T02:15:53.279Z,70.86
2023-04-22T02:16:33.213Z,70.51
2023-04-22T02:17:13.182Z,70.59
2023-04-22T02:17:54.068Z,70.42
2023-04-22T02:18:34.167Z,70.56
2023-04-22T02:19:15.259Z,70.76
2023-04-22T02:19:55.345Z,70.89
2023-04-22T02:20:35.170Z,71.21
2023-04-22T02:21:15.191Z,71.55
2023-04-22T02:21:56.072Z,71.87
2023-04-22T02:22:36.712Z,71.79
2023-04-22T02:23:18.077Z,71.35
2023-04-22T02:23:58.140Z,71.96
2023-04-22T02:24:38.043Z,71.31
2023-04-22T02:25:20.889Z,72.09
2023-04-22T02:26:02.118Z,71.47
2023-04-22T02:26:43.164Z,72.16
2023-04-22T02:27:24.047Z,71.32
2023-04-22T02:28:05.210Z,71.81
2023-04-22T02:28:45.038Z,72.22
2023-04-22T02:29:25.182Z,72.05
2023-04-22T02:30:05.049Z,72.36
2023-04-22T02:30:45.226Z,71.67
2023-04-22T02:31:26.190Z,71.67
2023-04-22T02:32:07.128Z,71.54
2023-04-22T02:32:48.050Z,71.50
2023-04-22T02:33:28.139Z,71.57
2023-04-22T02:34:08.061Z,71.56
2023-04-22T02:34:48.136Z,71.78
2023-04-22T02:35:29.082Z,71.41
2023-04-22T02:36:09.157Z,71.61
2023-04-22T02:36:49.054Z,71.75
2023-04-22T02:37:29.313Z,72.34
2023-04-22T02:38:10.078Z,72.72
2023-04-22T02:38:50.131Z,72.98
2023-04-22T02:39:32.057Z,71.94
2023-04-22T02:40:13.162Z,72.15
2023-04-22T02:40:54.015Z,71.87
2023-04-22T02:41:34.166Z,72.34
2023-04-22T02:42:14.058Z,72.54
2023-04-22T02:42:54.213Z,72.47
2023-04-22T02:43:35.064Z,71.82
2023-04-22T02:44:15.172Z,72.26
2023-04-22T02:44:55.027Z,71.78
2023-04-22T02:45:35.418Z,71.88
2023-04-22T02:46:19.028Z,72.84
2023-04-22T02:46:59.204Z,72.67
2023-04-22T02:47:40.087Z,72.50
2023-04-22T02:48:21.253Z,72.75
2023-04-22T02:49:01.019Z,72.12
2023-04-22T02:49:41.465Z,72.37
2023-04-22T02:50:23.029Z,72.27
2023-04-22T02:51:03.159Z,71.96
2023-04-22T02:51:46.044Z,72.30
2023-04-22T02:52:26.084Z,71.71
2023-04-22T02:53:06.037Z,72.16
2023-04-22T02:53:46.175Z,71.57
2023-04-22T02:54:26.091Z,71.89
2023-04-22T02:55:06.483Z,71.77
2023-04-22T02:55:48.021Z,71.76
2023-04-22T02:56:28.169Z,72.55
2023-04-22T02:57:09.003Z,72.57
2023-04-22T02:57:49.108Z,72.46
2023-04-22T02:58:36.063Z,72.76
2023-04-22T02:59:10.104Z,73.00
2023-04-22T02:59:57.012Z,72.78
2023-04-22T03:00:31.207Z,73.10
2023-04-22T03:01:19.174Z,72.86
2023-04-22T03:01:53.127Z,72.97
2023-04-22T03:02:40.223Z,72.89
2023-04-22T03:03:14.454Z,72.51
2023-04-22T03:03:56.102Z,73.19
2023-04-22T03:04:38.059Z,72.59
2023-04-22T03:05:17.984Z,72.61
2023-04-22T03:05:58.179Z,72.36
2023-04-22T03:06:39.050Z,72.14
2023-04-22T03:07:19.171Z,72.75
2023-04-22T03:08:01.013Z,72.46
2023-04-22T03:08:41.101Z,72.51
2023-04-22T03:09:21.069Z,72.30
2023-04-22T03:10:01.121Z,72.23
2023-04-22T03:10:41.025Z,71.98
2023-04-22T03:11:21.160Z,72.25
2023-04-22T03:12:02.031Z,72.13
2023-04-22T03:12:42.098Z,72.31
2023-04-22T03:13:21.977Z,72.54
2023-04-22T03:14:02.099Z,72.79
2023-04-22T03:14:42.067Z,72.16
2023-04-22T03:15:22.127Z,72.25
2023-04-22T03:16:02.037Z,72.49
2023-04-22T03:16:43.182Z,72.06
2023-04-22T03:17:23.039Z,72.38
2023-04-22T03:18:03.423Z,72.44
2023-04-22T03:18:42.979Z,72.09
2023-04-22T03:19:23.050Z,72.02
2023-04-22T03:20:03.011Z,72.21
2023-04-22T03:20:43.085Z,71.89
2023-04-22T03:21:23.033Z,72.09
2023-04-22T03:22:03.121Z,72.01
2023-04-22T03:22:43.010Z,71.81
2023-04-22T03:23:23.096Z,71.57
2023-04-22T03:24:03.010Z,71.90
2023-04-22T03:24:43.057Z,72.24
2023-04-22T03:25:22.985Z,71.70
2023-04-22T03:26:03.139Z,71.93
2023-04-22T03:26:42.998Z,71.63
2023-04-22T03:27:23.175Z,72.29
2023-04-22T03:28:03.020Z,72.12
2023-04-22T03:28:43.078Z,72.58
2023-04-22T03:29:22.988Z,71.78
2023-04-22T03:30:03.170Z,71.69
2023-04-22T03:30:43.043Z,71.25
2023-04-22T03:31:23.188Z,71.72
2023-04-22T03:32:03.019Z,72.41
2023-04-22T03:32:44.173Z,72.46
2023-04-22T03:33:24.983Z,72.84
2023-04-22T03:34:05.278Z,72.94
2023-04-22T03:34:45.014Z,72.75
2023-04-22T03:35:26.116Z,72.65
2023-04-22T03:36:06.028Z,72.60
2023-04-22T03:36:47.077Z,72.34
2023-04-22T03:37:26.969Z,72.23
2023-04-22T03:38:07.778Z,73.35
2023-04-22T03:38:47.946Z,73.11
2023-04-22T03:39:28.074Z,73.95
2023-04-22T03:40:07.984Z,73.61
2023-04-22T03:41:29.989Z,74.50
2023-04-22T03:42:10.181Z,74.02
2023-04-22T03:42:49.979Z,73.72
2023-04-22T03:43:30.054Z,73.81
2023-04-22T03:44:09.968Z,73.55
2023-04-22T03:44:50.144Z,73.00
2023-04-22T03:45:30.100Z,73.65
2023-04-22T03:46:10.905Z,73.40
2023-04-22T03:46:51.013Z,73.52
2023-04-22T03:47:31.079Z,73.53
2023-04-22T03:48:11.970Z,73.22
2023-04-22T03:48:52.110Z,73.48
2023-04-22T03:49:32.962Z,73.49
2023-04-22T03:50:14.037Z,73.11
2023-04-22T03:50:53.920Z,73.31
2023-04-22T03:51:34.098Z,73.29
2023-04-22T03:52:15.007Z,72.73
2023-04-22T03:52:55.077Z,72.79
2023-04-22T03:53:35.976Z,73.12
2023-04-22T03:54:16.139Z,73.45
2023-04-22T03:54:55.968Z,73.38
2023-04-22T03:55:36.358Z,73.25
2023-04-22T03:56:16.962Z,73.07
2023-04-22T03:56:57.028Z,73.42
2023-04-22T03:57:36.994Z,73.67
2023-04-22T03:58:17.021Z,73.28
2023-04-22T03:58:57.948Z,73.96
2023-04-22T03:59:38.443Z,73.26
2023-04-22T04:00:20.020Z,73.26
2023-04-22T04:01:00.089Z,73.19
2023-04-22T04:01:39.980Z,73.50
2023-04-22T04:02:20.300Z,73.32
2023-04-22T04:03:00.047Z,73.52
2023-04-22T04:03:40.992Z,73.76
2023-04-22T04:04:22.142Z,73.31
2023-04-22T04:05:02.764Z,73.27
2023-04-22T04:05:44.073Z,73.13
2023-04-22T04:06:24.057Z,73.38
2023-04-22T04:07:04.916Z,72.67
2023-04-22T04:07:45.040Z,73.08
2023-04-22T04:08:26.035Z,72.55
2023-04-22T04:09:06.143Z,73.03
2023-04-22T04:09:45.969Z,72.84
2023-04-22T04:10:26.070Z,72.83
2023-04-22T04:11:05.946Z,72.75
2023-04-22T04:11:46.031Z,73.23
2023-04-22T04:12:26.931Z,73.21
2023-04-22T04:13:07.053Z,73.46
2023-04-22T04:13:47.225Z,73.15
2023-04-22T04:14:28.153Z,73.16
2023-04-22T04:15:07.940Z,73.62
2023-04-22T04:15:48.080Z,73.02
2023-04-22T04:16:29.026Z,72.98
2023-04-22T04:17:09.802Z,73.43
2023-04-22T04:17:51.022Z,72.99
2023-04-22T04:18:31.024Z,73.42
2023-04-22T04:19:13.039Z,72.85
2023-04-22T04:19:53.087Z,73.51
2023-04-22T04:20:33.931Z,73.26
2023-04-22T04:21:14.026Z,73.58
2023-04-22T04:21:53.973Z,73.56
2023-04-22T04:22:35.026Z,73.47
2023-04-22T04:23:14.926Z,73.54
2023-04-22T04:23:55.078Z,72.93
2023-04-22T04:24:35.932Z,73.60
2023-04-22T04:25:16.031Z,73.46
2023-04-22T04:25:56.989Z,73.42
2023-04-22T04:26:37.889Z,74.39
2023-04-22T04:27:18.949Z,73.64
2023-04-22T04:27:59.082Z,73.91
2023-04-22T04:28:40.922Z,74.06
2023-04-22T04:29:21.047Z,73.55
2023-04-22T04:30:01.927Z,73.40
2023-04-22T04:30:42.358Z,73.66
2023-04-22T04:31:21.953Z,73.72
2023-04-22T04:32:02.066Z,73.59
2023-04-22T04:32:43.013Z,73.57
2023-04-22T04:33:23.121Z,73.75
2023-04-22T04:34:06.921Z,73.69
2023-04-22T04:34:47.232Z,73.56
2023-04-22T04:35:27.957Z,73.40
2023-04-22T04:36:08.807Z,73.67
2023-04-22T04:36:49.913Z,73.35
2023-04-22T04:37:30.075Z,73.55
2023-04-22T04:38:12.947Z,73.42
2023-04-22T04:38:55.209Z,73.66
2023-04-22T04:39:36.947Z,73.46
2023-04-22T04:40:17.596Z,73.46
2023-04-22T04:40:58.922Z,73.45
2023-04-22T04:41:39.019Z,73.37
2023-04-22T04:42:20.968Z,73.43
2023-04-22T04:43:03.438Z,73.42
2023-04-22T04:43:43.889Z,73.34
2023-04-22T04:44:24.056Z,73.65
2023-04-22T04:45:04.938Z,73.72
2023-04-22T04:45:49.086Z,73.91
2023-04-22T04:46:30.000Z,74.23
2023-04-22T04:47:10.035Z,74.18
2023-04-22T04:47:49.946Z,74.03
2023-04-22T04:48:30.033Z,74.26
2023-04-22T04:49:15.920Z,74.10
2023-04-22T04:49:58.576Z,74.30
2023-04-22T04:50:39.889Z,74.20
2023-04-22T04:51:20.572Z,74.28
2023-04-22T04:52:01.748Z,74.28
2023-04-22T04:52:41.976Z,74.50
2023-04-22T04:53:22.914Z,74.25
2023-04-22T04:54:16.909Z,74.44
2023-04-22T04:55:10.889Z,74.21
2023-04-22T04:56:04.911Z,74.55
2023-04-22T04:56:58.886Z,74.48
2023-04-22T04:57:39.882Z,75.05
2023-04-22T04:58:20.085Z,74.92
2023-04-22T04:58:59.884Z,74.74
2023-04-22T04:59:40.415Z,74.65
2023-04-22T05:00:21.925Z,74.66
2023-04-22T05:01:02.030Z,74.71
2023-04-22T05:01:42.980Z,74.47
2023-04-22T05:02:23.162Z,74.64
2023-04-22T05:02:57.122Z,74.61
2023-04-22T05:03:44.079Z,74.99
2023-04-22T05:04:18.162Z,74.99
2023-04-22T05:05:04.991Z,74.91
2023-04-22T05:05:38.965Z,74.81
2023-04-22T05:06:25.888Z,75.20
2023-04-22T05:07:00.100Z,75.03
2023-04-22T05:07:46.918Z,74.94
2023-04-22T05:08:20.965Z,75.35
2023-04-22T05:09:08.207Z,74.70
2023-04-22T05:09:43.088Z,75.34
2023-04-22T05:10:30.897Z,74.64
2023-04-22T05:11:05.006Z,74.54
2023-04-22T05:11:51.881Z,74.39
2023-04-22T05:12:26.508Z,74.48
2023-04-22T05:13:06.886Z,74.79
2023-04-22T05:13:46.981Z,74.85
2023-04-22T05:14:26.871Z,74.95
2023-04-22T05:15:07.039Z,74.65
2023-04-22T05:15:46.893Z,74.48
2023-04-22T05:16:27.023Z,74.67
2023-04-22T05:17:06.899Z,74.74
2023-04-22T05:17:47.029Z,75.22
2023-04-22T05:18:27.895Z,75.59
2023-04-22T05:19:08.560Z,75.71
2023-04-22T05:19:48.890Z,75.88
2023-04-22T05:20:29.028Z,75.85
2023-04-22T05:21:10.876Z,75.81
2023-04-22T05:21:50.984Z,75.47
2023-04-22T05:22:31.838Z,75.91
2023-04-22T05:23:11.985Z,75.91
2023-04-22T05:23:52.948Z,75.79
2023-04-22T05:24:32.988Z,76.61
2023-04-22T05:25:13.889Z,76.11
2023-04-22T05:25:53.974Z,76.26
2023-04-22T05:26:33.886Z,76.18
2023-04-22T05:27:15.109Z,76.11
2023-04-22T05:27:54.871Z,76.22
2023-04-22T05:28:34.948Z,75.95
2023-04-22T05:29:14.884Z,75.89
2023-04-22T05:29:55.947Z,75.89
2023-04-22T05:30:35.887Z,75.60
2023-04-22T05:31:16.107Z,75.82
2023-04-22T05:31:56.959Z,75.49
2023-04-22T05:32:36.958Z,75.79
2023-04-22T05:33:16.896Z,75.46
2023-04-22T05:33:56.934Z,75.95
2023-04-22T05:34:37.885Z,75.57
2023-04-22T05:35:17.952Z,75.88
2023-04-22T05:35:58.885Z,75.38
2023-04-22T05:36:38.989Z,75.47
2023-04-22T05:37:19.888Z,75.56
2023-04-22T05:37:59.946Z,75.42
2023-04-22T05:38:39.849Z,75.30
2023-04-22T05:39:19.980Z,75.28
2023-04-22T05:39:59.927Z,75.10
2023-04-22T05:40:40.565Z,75.20
2023-04-22T05:41:21.861Z,75.06
2023-04-22T05:42:02.676Z,74.99
2023-04-22T05:42:42.847Z,74.69
2023-04-22T05:43:22.969Z,74.80
2023-04-22T05:44:02.870Z,75.02
2023-04-22T05:44:42.994Z,74.64
2023-04-22T05:45:23.863Z,75.33
2023-04-22T05:46:04.028Z,74.83
2023-04-22T05:46:43.874Z,75.00
2023-04-22T05:47:23.993Z,74.69
2023-04-22T05:48:03.901Z,74.85
2023-04-22T05:48:43.973Z,75.13
2023-04-22T05:49:24.830Z,75.14
2023-04-22T05:50:05.128Z,74.79
2023-04-22T05:50:44.921Z,74.91
2023-04-22T05:51:24.940Z,75.16
2023-04-22T05:52:04.870Z,75.07
2023-04-22T05:52:44.958Z,74.95
2023-04-22T05:53:25.948Z,75.07
2023-04-22T05:54:06.073Z,74.98
2023-04-22T05:54:45.878Z,75.07
2023-04-22T05:55:25.935Z,74.76
2023-04-22T05:56:05.894Z,74.74
2023-04-22T05:56:47.978Z,75.18
2023-04-22T05:57:28.836Z,74.80
2023-04-22T05:58:08.958Z,74.64
2023-04-22T05:58:48.894Z,74.63
2023-04-22T05:59:29.025Z,74.38
2023-04-22T06:00:11.827Z,74.59
2023-04-22T06:00:51.978Z,74.40
2023-04-22T06:01:32.859Z,74.69
2023-04-22T06:02:13.104Z,74.14
2023-04-22T06:02:53.021Z,74.36
2023-04-22T06:03:33.152Z,74.35
2023-04-22T06:04:14.011Z,74.26
2023-04-22T06:04:54.212Z,74.11
2023-04-22T06:05:35.871Z,73.98
2023-04-22T06:06:15.932Z,73.99
2023-04-22T06:06:57.866Z,73.74
2023-04-22T06:07:37.976Z,74.08
2023-04-22T06:08:17.903Z,73.98
2023-04-22T06:08:58.483Z,73.69
2023-04-22T06:09:40.128Z,73.68
2023-04-22T06:10:20.910Z,73.58
2023-04-22T06:11:00.860Z,73.88
2023-04-22T06:11:40.977Z,73.64
2023-04-22T06:12:20.857Z,73.45
2023-04-22T06:13:01.300Z,73.52
2023-04-22T06:13:41.821Z,73.33
2023-04-22T06:14:22.044Z,73.43
2023-04-22T06:15:01.831Z,73.19
2023-04-22T06:15:41.956Z,73.17
2023-04-22T06:16:22.832Z,73.19
2023-04-22T06:17:02.941Z,73.23
2023-04-22T06:17:43.904Z,73.05
2023-04-22T06:18:23.997Z,73.02
2023-04-22T06:19:03.817Z,73.15
2023-04-22T06:19:43.908Z,73.10
2023-04-22T06:20:23.804Z,73.00
2023-04-22T06:21:03.895Z,72.96
2023-04-22T06:21:46.800Z,72.99
2023-04-22T06:22:26.970Z,73.18
2023-04-22T06:23:06.854Z,73.54
2023-04-22T06:23:47.920Z,73.57
2023-04-22T06:24:28.827Z,73.61
2023-04-22T06:25:09.909Z,73.51
2023-04-22T06:25:50.851Z,73.47
2023-04-22T06:26:31.017Z,73.19
2023-04-22T06:27:10.778Z,73.39
2023-04-22T06:27:50.886Z,73.16
2023-04-22T06:28:31.889Z,73.31
2023-04-22T06:29:11.946Z,73.65
2023-04-22T06:29:51.816Z,73.56
2023-04-22T06:30:33.061Z,73.67
2023-04-22T06:31:12.913Z,73.65
2023-04-22T06:31:54.623Z,73.61
2023-04-22T06:32:37.789Z,73.80
2023-04-22T06:33:17.900Z,73.65
2023-04-22T06:33:58.788Z,73.71
2023-04-22T06:34:38.857Z,73.38
2023-04-22T06:35:18.853Z,73.73
2023-04-22T06:35:58.951Z,73.70
2023-04-22T06:36:43.877Z,73.54
2023-04-22T06:37:26.937Z,73.55
2023-04-22T06:38:07.814Z,73.38
2023-04-22T06:38:47.858Z,73.34
2023-04-22T06:39:27.791Z,73.64
2023-04-22T06:40:07.953Z,73.64
2023-04-22T06:40:47.759Z,73.68
2023-04-22T06:41:28.892Z,73.27
2023-04-22T06:42:09.766Z,73.07
2023-04-22T06:42:49.911Z,73.25
2023-04-22T06:43:29.784Z,73.36
2023-04-22T06:44:11.903Z,72.99
2023-04-22T06:44:51.783Z,73.21
2023-04-22T06:45:31.856Z,73.22
2023-04-22T06:46:12.769Z,73.36
2023-04-22T06:46:53.773Z,74.07
2023-04-22T06:47:34.855Z,74.08
2023-04-22T06:48:28.795Z,73.67
2023-04-22T06:49:22.831Z,73.76
2023-04-22T06:50:09.858Z,73.73
2023-04-22T06:50:43.901Z,73.33
2023-04-22T06:51:30.779Z,73.14
2023-04-22T06:52:04.855Z,73.35
2023-04-22T06:52:51.812Z,73.04
2023-04-22T06:53:25.888Z,73.15
2023-04-22T06:54:13.805Z,72.72
2023-04-22T06:54:47.838Z,73.40
2023-04-22T06:55:34.793Z,73.16
2023-04-22T06:56:08.850Z,73.69
2023-04-22T06:56:56.775Z,73.05
2023-04-22T06:57:30.916Z,72.91
2023-04-22T06:58:17.830Z,73.05
2023-04-22T06:58:51.867Z,72.89
2023-04-22T06:59:38.981Z,73.04
2023-04-22T07:00:13.862Z,72.99
2023-04-22T07:00:53.815Z,72.75
2023-04-22T07:01:33.946Z,72.76
2023-04-22T07:02:15.008Z,72.71
2023-04-22T07:02:55.003Z,72.70
2023-04-22T07:03:36.032Z,72.33
2023-04-22T07:04:17.047Z,72.50
2023-04-22T07:04:56.764Z,72.61
2023-04-22T07:05:39.807Z,72.38
2023-04-22T07:06:20.809Z,72.41
2023-04-22T07:07:00.924Z,72.51
2023-04-22T07:07:40.744Z,72.35
2023-04-22T07:08:20.919Z,72.36
2023-04-22T07:09:01.816Z,72.12
2023-04-22T07:09:42.062Z,72.14
2023-04-22T07:10:22.863Z,72.26
2023-04-22T07:11:04.881Z,72.52
2023-04-22T07:11:45.831Z,72.54
2023-04-22T07:12:26.385Z,72.71
2023-04-22T07:13:06.826Z,72.65
2023-04-22T07:13:46.889Z,72.72
2023-04-22T07:14:27.766Z,72.60
2023-04-22T07:15:09.386Z,72.43
2023-04-22T07:15:49.781Z,72.82
2023-04-22T07:16:29.924Z,72.78
2023-04-22T07:17:09.780Z,72.69
2023-04-22T07:17:51.112Z,72.39
2023-04-22T07:18:31.773Z,72.42
2023-04-22T07:19:11.996Z,72.13
2023-04-22T07:19:51.798Z,72.23
2023-04-22T07:20:31.900Z,72.04
2023-04-22T07:21:12.753Z,72.08
2023-04-22T07:21:52.909Z,71.66
2023-04-22T07:22:33.775Z,71.10
2023-04-22T07:23:13.860Z,71.63
2023-04-22T07:23:54.741Z,71.05
2023-04-22T07:24:34.875Z,71.26
2023-04-22T07:25:15.723Z,70.79
2023-04-22T07:25:55.822Z,70.76
2023-04-22T07:26:38.719Z,70.69
2023-04-22T07:27:18.801Z,70.56
2023-04-22T07:27:58.798Z,70.45
2023-04-22T07:28:39.870Z,70.35
2023-04-22T07:29:20.738Z,69.90
2023-04-22T07:30:00.905Z,70.02
2023-04-22T07:30:41.747Z,69.58
2023-04-22T07:31:21.919Z,69.20
2023-04-22T07:32:02.844Z,69.04
2023-04-22T07:32:42.875Z,69.02
2023-04-22T07:33:22.822Z,68.37
2023-04-22T07:34:02.871Z,68.76
2023-04-22T07:34:43.761Z,68.36
2023-04-22T07:35:23.925Z,68.53
2023-04-22T07:36:04.014Z,68.32
2023-04-22T07:36:43.834Z,68.70
2023-04-22T07:37:23.722Z,68.46
2023-04-22T07:38:04.036Z,68.53
2023-04-22T07:38:44.807Z,68.21
2023-04-22T07:39:25.155Z,68.41
2023-04-22T07:40:04.780Z,68.34
2023-04-22T07:40:46.861Z,68.37
2023-04-22T07:41:26.774Z,68.22
2023-04-22T07:42:07.392Z,68.04
2023-04-22T07:42:48.714Z,67.82
2023-04-22T07:43:28.908Z,67.99
2023-04-22T07:44:09.932Z,67.57
2023-04-22T07:44:49.852Z,67.38
2023-04-22T07:45:29.730Z,67.21
2023-04-22T07:46:09.850Z,66.65
2023-04-22T07:46:50.713Z,66.24
2023-04-22T07:47:31.255Z,66.23
2023-04-22T07:48:11.725Z,66.81
2023-04-22T07:48:51.816Z,66.91
2023-04-22T07:49:31.738Z,67.09
2023-04-22T07:50:12.861Z,66.80
2023-04-22T07:50:53.704Z,66.91
2023-04-22T07:51:33.807Z,66.85
2023-04-22T07:52:13.720Z,66.83
2023-04-22T07:52:53.870Z,66.47
2023-04-22T07:53:33.762Z,66.74
2023-04-22T07:54:13.849Z,66.37
2023-04-22T07:54:54.772Z,66.62
2023-04-22T07:55:34.881Z,66.28
2023-04-22T07:56:15.711Z,66.76
2023-04-22T07:56:57.487Z,66.97
2023-04-22T07:57:39.714Z,66.47
2023-04-22T07:58:19.773Z,66.46
2023-04-22T07:59:00.698Z,66.83
2023-04-22T07:59:41.142Z,66.66
2023-04-22T08:00:22.728Z,66.39
2023-04-22T08:01:02.918Z,66.11
2023-04-22T08:01:42.709Z,66.29
2023-04-22T08:02:54.930Z,65.97
2023-04-22T08:03:35.822Z,65.74
2023-04-22T08:04:16.972Z,65.75
2023-04-22T08:04:58.738Z,65.66
2023-04-22T08:05:38.712Z,65.54
2023-04-22T08:06:12.787Z,65.33
2023-04-22T08:07:03.446Z,65.18
2023-04-22T08:07:40.892Z,64.89
2023-04-22T08:08:27.768Z,65.21
2023-04-22T08:09:01.797Z,64.56
2023-04-22T08:09:48.707Z,65.31
2023-04-22T08:10:22.914Z,64.96
2023-04-22T08:11:03.725Z,64.94
2023-04-22T08:11:43.869Z,65.05
2023-04-22T08:12:24.715Z,64.77
2023-04-22T08:13:04.831Z,64.76
2023-04-22T08:13:44.713Z,64.81
2023-04-22T08:14:24.872Z,66.10
2023-04-22T08:15:04.704Z,67.32
2023-04-22T08:15:44.885Z,65.99
2023-04-22T08:16:25.817Z,66.08
2023-04-22T08:17:05.925Z,65.39
2023-04-22T08:17:45.696Z,65.12
2023-04-22T08:18:25.900Z,66.65
2023-04-22T08:19:05.696Z,65.08
2023-04-22T08:19:46.835Z,65.72
2023-04-22T08:20:27.732Z,65.72
2023-04-22T08:21:08.915Z,65.28
2023-04-22T08:21:50.770Z,64.89
2023-04-22T08:22:32.539Z,66.77
2023-04-22T08:23:13.746Z,64.63
2023-04-22T08:23:54.887Z,64.43
2023-04-22T08:24:34.711Z,65.97
2023-04-22T08:25:16.142Z,64.28
2023-04-22T08:25:56.701Z,63.62
2023-04-22T08:26:37.122Z,63.18
2023-04-22T08:27:17.754Z,64.23
2023-04-22T08:27:58.794Z,62.46
2023-04-22T08:28:38.724Z,63.52
2023-04-22T08:29:19.992Z,63.00
2023-04-22T08:29:59.738Z,62.32
2023-04-22T08:30:40.280Z,63.38
2023-04-22T08:31:20.785Z,63.63
2023-04-22T08:32:01.811Z,62.75
2023-04-22T08:32:42.817Z,62.14
2023-04-22T08:33:25.892Z,61.64
2023-04-22T08:34:06.737Z,62.17
2023-04-22T08:34:46.794Z,62.32
2023-04-22T08:35:27.747Z,61.15
2023-04-22T08:36:08.967Z,61.16
2023-04-22T08:36:49.698Z,60.88
2023-04-22T08:37:29.785Z,59.30
2023-04-22T08:38:10.829Z,58.94
2023-04-22T08:38:50.806Z,59.65
2023-04-22T08:39:30.737Z,58.31
2023-04-22T08:40:12.083Z,60.30
2023-04-22T08:40:53.717Z,57.83
2023-04-22T08:41:33.872Z,61.54
2023-04-22T08:42:15.724Z,59.35
2023-04-22T08:42:56.893Z,58.95
2023-04-22T08:43:37.737Z,58.80
2023-04-22T08:44:18.143Z,58.00
2023-04-22T08:44:58.771Z,58.06
2023-04-22T08:45:38.806Z,58.76
2023-04-22T08:46:21.743Z,58.77
2023-04-22T08:47:03.125Z,59.30